Main page
METAR-TAF:

METAR-TAF

Airports :

Leeds Bradford Airport

Leeds, England

latitude: 53-52N, longitude: 001-39W, elevation: 208 m

Current weather observation

The report was made 1 hour and 2 minutes ago, at 00:50 UTC
Wind 6 kt from the West
Temperature 9°C
Humidity 93%
Pressure 1025 hPa
Visibility 10 km or more
no clouds below 1500 m and no cumulonimbus

METAR: EGNM 030050Z 26006KT CAVOK 09/08 Q1025

Time: 02:52 (01:52 UTC)

Forecast

The report was made 2 hours and 56 minutes ago, at 22:56 UTC
Forecast valid from 03 at 00 UTC to 03 at 24 UTC
Wind 5 kt from the West
Visibility 10 km or more
Few clouds at a height of 3500 ft
Probability 30%
from 03 at 03 UTC to 03 at 09 UTC
Visibility: 3500 m
mist
Becoming
from 03 at 09 UTC to 03 at 12 UTC
Wind 10 kt from the South/Southwest

TAF: EGNM 022256Z 0300/0324 26005KT 9999 FEW035 PROB30 0303/0309 3500 BR BECMG 0309/0312 20010KT

Weather observations and forecasts of more than 4000 airports (METAR and TAF reports).

The available stations are represented by yellow and red dots on the map.

Hover mouse over dot to see the name of the station.

Then click to see weather observations and forecasts.

To change the map : click on the green buttons with a black cross to zoom in, on the green button with a dash to zoom out, or on the green arrows for adjacent maps.


METAR-TAF: